Time;durP1;ratioP1;P1;durP2;ratioP2;P2;SDS_P1;SDS_P2;PMS_P1;PMS_P2;Temp;Humidity;BMP_temperature;BMP_pressure;BME280_temperature;BME280_humidity;BME280_pressure;Samples;Min_cycle;Max_cycle;Signal;HPM_P1;HPM_P2
2022/11/14 00:00:46;;;;;;;22.30;13.00;;;;;;;8.18;86.40;101401.50;99753;1288;138476;-73
2022/11/14 00:03:32;;;;;;;20.30;12.90;;;;;;;8.15;86.25;101405.16;99935;1288;96517;-72
2022/11/14 00:06:18;;;;;;;22.40;13.90;;;;;;;8.12;86.40;101410.89;99802;1294;138140;-73
2022/11/14 00:09:04;;;;;;;23.10;13.50;;;;;;;8.06;86.22;101404.67;99959;1289;96477;-73
2022/11/14 00:11:49;;;;;;;22.50;13.30;;;;;;;8.03;86.43;101403.29;100000;1294;110031;-73
2022/11/14 00:14:35;;;;;;;19.90;12.30;;;;;;;8.00;86.41;101402.95;99981;1289;107460;-73
2022/11/14 00:17:21;;;;;;;22.50;13.30;;;;;;;7.97;86.40;101402.27;99983;1294;97792;-73
2022/11/14 00:20:11;;;;;;;20.20;12.50;;;;;;;7.91;86.47;101401.61;99924;1298;137920;-73
2022/11/14 00:22:57;;;;;;;21.00;12.80;;;;;;;7.91;86.54;101401.96;100365;1279;96995;-73
2022/11/14 00:25:43;;;;;;;21.40;13.00;;;;;;;7.89;86.61;101399.00;99901;1294;137987;-73
2022/11/14 00:28:29;;;;;;;20.00;12.20;;;;;;;7.87;86.61;101396.75;99983;1289;108523;-71
2022/11/14 00:31:15;;;;;;;19.40;12.10;;;;;;;7.86;86.82;101399.52;99914;1281;138057;-72
2022/11/14 00:34:01;;;;;;;18.70;11.50;;;;;;;7.85;86.87;101398.32;100039;1293;108432;-72
2022/11/14 00:36:46;;;;;;;21.10;12.50;;;;;;;7.83;86.80;101396.59;99943;1288;141094;-73
2022/11/14 00:39:32;;;;;;;25.50;12.30;;;;;;;7.82;86.98;101398.85;100048;1287;108926;-72
2022/11/14 00:42:18;;;;;;;21.20;12.10;;;;;;;7.83;86.94;101396.08;99877;1288;138804;-71
2022/11/14 00:45:04;;;;;;;19.60;11.80;;;;;;;7.84;87.04;101394.52;100001;1289;96486;-72
2022/11/14 00:47:50;;;;;;;19.00;11.80;;;;;;;7.84;87.05;101393.30;100026;1282;107219;-72
2022/11/14 00:50:36;;;;;;;21.60;12.00;;;;;;;7.86;87.13;101393.64;99984;1291;96577;-72
2022/11/14 00:53:22;;;;;;;18.70;12.20;;;;;;;7.90;87.16;101388.28;100045;1289;109375;-72
2022/11/14 00:56:09;;;;;;;20.00;11.80;;;;;;;7.92;87.23;101381.17;99920;1295;138240;-72
2022/11/14 00:58:55;;;;;;;21.40;13.00;;;;;;;7.95;87.19;101377.52;100066;1288;96599;-72
2022/11/14 01:01:41;;;;;;;21.70;13.50;;;;;;;7.94;87.01;101375.10;99932;1289;137278;-72
2022/11/14 01:04:27;;;;;;;22.50;14.10;;;;;;;7.95;87.23;101374.58;100035;1288;96450;-72
2022/11/14 01:07:13;;;;;;;22.50;13.80;;;;;;;7.93;87.13;101373.20;99940;1291;137385;-72
2022/11/14 01:09:59;;;;;;;20.90;12.80;;;;;;;7.92;87.24;101370.95;100159;1291;108315;-72
2022/11/14 01:12:45;;;;;;;17.90;11.50;;;;;;;7.92;87.21;101366.80;99963;1292;138424;-71
2022/11/14 01:15:31;;;;;;;21.30;12.90;;;;;;;7.91;87.16;101362.66;99970;1289;107617;-72
2022/11/14 01:18:19;;;;;;;20.20;12.30;;;;;;;7.90;87.25;101360.74;99859;1294;138636;-72
2022/11/14 01:21:08;;;;;;;17.70;11.20;;;;;;;7.86;87.11;101361.60;100817;1288;110267;-74
2022/11/14 01:23:53;;;;;;;20.40;12.30;;;;;;;7.84;87.22;101356.59;99988;1289;107183;-73
2022/11/14 01:26:39;;;;;;;19.20;12.10;;;;;;;7.81;87.24;101350.89;100035;1287;97009;-72
2022/11/14 01:29:25;;;;;;;20.70;12.10;;;;;;;7.76;87.17;101350.57;100092;1287;106898;-73
2022/11/14 01:32:11;;;;;;;17.50;11.60;;;;;;;7.73;87.42;101349.20;99894;1287;138827;-70
2022/11/14 01:34:57;;;;;;;20.60;11.70;;;;;;;7.72;87.46;101347.98;100088;1295;108879;-71
2022/11/14 01:37:42;;;;;;;19.70;11.30;;;;;;;7.71;87.62;101350.39;99973;1289;138259;-73
2022/11/14 01:40:29;;;;;;;17.30;11.60;;;;;;;7.70;87.65;101347.80;100097;1288;96364;-71
2022/11/14 01:43:28;;;;;;;22.60;12.10;;;;;;;7.70;87.67;101346.77;99953;1287;138461;-71
2022/11/14 01:46:19;;;;;;;23.50;13.30;;;;;;;7.69;87.78;101340.36;101267;1296;94681;-72
2022/11/14 01:49:11;;;;;;;22.00;13.30;;;;;;;7.66;87.76;101337.44;100204;1289;138004;-72
2022/11/14 01:52:03;;;;;;;22.40;12.80;;;;;;;7.63;87.94;101332.42;100018;1299;107506;-72
2022/11/14 01:54:51;;;;;;;19.40;13.30;;;;;;;7.61;88.03;101329.66;99909;1294;138549;-72
2022/11/14 01:57:40;;;;;;;22.90;14.50;;;;;;;7.61;88.24;101330.88;100509;1287;107470;-72
2022/11/14 02:00:26;;;;;;;23.00;14.90;;;;;;;7.61;88.41;101325.16;99909;1289;138583;-72
2022/11/14 02:03:14;;;;;;;24.90;14.50;;;;;;;7.62;88.47;101323.42;100199;1288;109962;-72
2022/11/14 02:05:58;;;;;;;;;;;;;;;7.60;88.37;101325.86;100060;1288;106295;-72
2022/11/14 02:08:45;;;;;;;24.70;15.40;;;;;;;7.58;88.43;101328.81;100113;1294;96455;-72
2022/11/14 02:11:42;;;;;;;27.40;16.30;;;;;;;7.55;88.47;101324.15;100035;1287;108336;-71
2022/11/14 02:14:30;;;;;;;29.30;15.40;;;;;;;7.52;88.56;101323.61;99978;1294;139614;-72
2022/11/14 02:17:17;;;;;;;27.50;16.40;;;;;;;7.49;88.62;101319.64;100006;1291;109209;-72
2022/11/14 02:20:22;;;;;;;26.80;16.00;;;;;;;7.47;88.68;101319.48;99849;1287;138439;-72
2022/11/14 02:23:07;;;;;;;30.80;18.60;;;;;;;7.43;88.84;101317.77;100675;1282;96963;-72
2022/11/14 02:25:53;;;;;;;27.70;16.80;;;;;;;7.41;88.99;101318.46;99881;1294;139450;-72
2022/11/14 02:28:39;;;;;;;26.30;17.50;;;;;;;7.39;89.00;101317.79;100019;1288;96396;-72
2022/11/14 02:31:25;;;;;;;28.80;18.20;;;;;;;7.36;89.07;101312.41;100718;1291;138947;-72
2022/11/14 02:34:10;;;;;;;32.80;19.20;;;;;;;7.33;89.36;101306.01;100846;1295;107271;-72
2022/11/14 02:36:56;;;;;;;30.50;17.60;;;;;;;7.31;89.73;101306.54;100322;1287;138749;-72
2022/11/14 02:39:42;;;;;;;32.00;18.20;;;;;;;7.28;89.78;101302.39;99977;1282;107593;-71
2022/11/14 02:42:27;;;;;;;28.10;18.00;;;;;;;7.27;90.12;101305.17;100116;1288;139346;-72
2022/11/14 02:45:14;;;;;;;32.70;19.40;;;;;;;7.24;90.13;101301.37;100391;1294;108962;-72
2022/11/14 02:47:59;;;;;;;28.70;17.80;;;;;;;7.24;90.34;101303.62;100047;1290;107437;-71
2022/11/14 02:50:48;;;;;;;30.50;18.80;;;;;;;7.21;90.45;101296.36;100016;1289;97006;-71
2022/11/14 02:53:33;;;;;;;33.70;18.60;;;;;;;7.17;90.55;101293.40;100385;1289;107425;-71
2022/11/14 02:56:19;;;;;;;30.10;18.00;;;;;;;7.15;90.78;101290.46;99939;1291;139249;-70
2022/11/14 02:59:05;;;;;;;33.70;18.30;;;;;;;7.15;90.99;101291.16;100066;1292;109624;-71
2022/11/14 03:01:50;;;;;;;34.10;18.30;;;;;;;7.14;91.01;101285.80;99875;1289;139511;-71
2022/11/14 03:04:36;;;;;;;28.40;16.60;;;;;;;7.12;91.12;101281.48;100024;1289;96470;-71
2022/11/14 03:07:22;;;;;;;30.40;17.70;;;;;;;7.12;91.30;101283.73;99875;1294;138253;-71
2022/11/14 03:10:10;;;;;;;29.80;17.40;;;;;;;7.11;91.40;101285.64;100031;1299;96357;-71
2022/11/14 03:12:59;;;;;;;28.80;15.70;;;;;;;7.10;91.43;101277.52;99996;1291;138167;-71
2022/11/14 03:15:45;;;;;;;26.70;15.40;;;;;;;7.08;91.50;101282.02;100040;1287;108244;-71
2022/11/14 03:18:30;;;;;;;23.60;15.10;;;;;;;7.07;91.82;101277.17;100442;1288;139795;-71
2022/11/14 03:21:19;;;;;;;23.00;14.80;;;;;;;7.08;91.72;101274.41;100741;1288;107564;-71
2022/11/14 03:24:05;;;;;;;24.90;15.20;;;;;;;7.08;91.77;101275.28;100086;1287;96814;-71
2022/11/14 03:26:51;;;;;;;22.90;14.30;;;;;;;7.09;91.65;101274.40;100179;1289;109258;-71
2022/11/14 03:29:37;;;;;;;20.30;13.40;;;;;;;7.10;91.63;101271.29;100051;1287;109426;-71
2022/11/14 03:32:23;;;;;;;21.30;13.40;;;;;;;7.13;92.06;101270.58;100119;1289;138388;-72
2022/11/14 03:35:10;;;;;;;21.00;13.80;;;;;;;7.16;91.96;101272.13;101163;1286;107698;-71
2022/11/14 03:37:56;;;;;;;19.50;13.00;;;;;;;7.18;91.96;101274.23;101090;1289;138973;-71
2022/11/14 03:40:42;;;;;;;21.30;12.70;;;;;;;7.18;91.81;101273.87;101468;1296;110936;-71
2022/11/14 03:43:30;;;;;;;21.90;13.90;;;;;;;7.17;91.72;101268.15;100757;1287;140904;-71
2022/11/14 03:46:16;;;;;;;21.50;13.30;;;;;;;7.16;91.75;101264.70;100090;1289;96941;-73
2022/11/14 03:49:01;;;;;;;22.10;13.30;;;;;;;7.16;91.71;101266.08;99946;1289;142192;-70
2022/11/14 03:51:47;;;;;;;21.10;13.10;;;;;;;7.15;91.75;101265.73;100080;1289;96432;-70
2022/11/14 03:54:33;;;;;;;18.40;12.40;;;;;;;7.13;91.63;101260.90;99989;1291;139338;-71
2022/11/14 03:57:18;;;;;;;20.00;12.40;;;;;;;7.12;91.67;101257.97;100102;1289;106876;-73
2022/11/14 04:00:06;;;;;;;19.30;13.30;;;;;;;7.12;91.96;101261.42;100050;1289;96848;-72
2022/11/14 04:02:52;;;;;;;22.90;13.40;;;;;;;7.11;91.76;101260.39;99996;1294;107858;-70
2022/11/14 04:05:37;;;;;;;20.80;13.60;;;;;;;7.09;91.86;101255.21;99986;1299;96462;-71
2022/11/14 04:08:23;;;;;;;20.20;12.70;;;;;;;7.07;91.99;101253.31;99901;1291;137885;-71
2022/11/14 04:11:09;;;;;;;20.90;13.00;;;;;;;7.06;92.13;101250.03;100020;1293;107160;-71
2022/11/14 04:13:54;;;;;;;19.50;12.30;;;;;;;7.04;92.06;101249.35;100969;1296;138292;-71
2022/11/14 04:16:40;;;;;;;18.40;12.50;;;;;;;7.03;92.27;101245.73;100134;1289;106949;-71
2022/11/14 04:19:25;;;;;;;20.90;12.80;;;;;;;7.02;92.31;101247.98;100155;1287;138945;-70
2022/11/14 04:22:12;;;;;;;21.10;13.10;;;;;;;6.99;92.53;101245.19;99972;1282;109971;-71
2022/11/14 04:24:58;;;;;;;19.20;12.50;;;;;;;6.96;92.26;101248.14;99862;1288;138061;-70
2022/11/14 04:27:44;;;;;;;19.40;11.70;;;;;;;6.95;92.50;101243.48;100513;1293;95249;-70
2022/11/14 04:30:30;;;;;;;15.80;11.80;;;;;;;6.96;92.51;101241.57;99978;1289;108222;-70
2022/11/14 04:33:19;;;;;;;14.50;10.30;;;;;;;6.96;92.53;101240.35;100558;1289;96488;-70
2022/11/14 04:36:06;;;;;;;15.60;10.00;;;;;;;6.97;92.52;101239.31;100008;1292;109678;-72
2022/11/14 04:38:51;;;;;;;14.20;10.20;;;;;;;6.98;92.44;101236.19;99825;1281;138214;-69
2022/11/14 04:41:37;;;;;;;14.20;9.00;;;;;;;6.96;92.47;101233.60;100020;1288;96881;-70
2022/11/14 04:44:23;;;;;;;13.30;9.80;;;;;;;6.96;92.49;101233.79;99844;1288;138155;-69
2022/11/14 04:47:09;;;;;;;11.00;7.90;;;;;;;6.96;92.48;101229.80;100008;1292;96473;-71
2022/11/14 04:49:54;;;;;;;10.40;8.00;;;;;;;6.96;92.42;101234.99;99926;1288;137868;-70
2022/11/14 04:52:41;;;;;;;16.00;8.50;;;;;;;6.95;92.21;101233.27;99991;1289;107475;-70
2022/11/14 04:55:26;;;;;;;11.20;7.20;;;;;;;6.96;92.46;101226.70;99953;1291;137897;-71
2022/11/14 04:58:12;;;;;;;12.20;8.00;;;;;;;6.96;92.38;101230.50;100019;1289;106724;-70
2022/11/14 05:00:58;;;;;;;10.00;7.50;;;;;;;6.94;92.26;101223.92;99858;1289;138139;-70
2022/11/14 05:03:44;;;;;;;10.70;8.00;;;;;;;6.94;92.34;101227.73;100038;1294;109789;-70
2022/11/14 05:06:30;;;;;;;15.10;8.70;;;;;;;6.94;92.33;101226.88;99956;1294;107099;-70
2022/11/14 05:09:16;;;;;;;13.20;8.30;;;;;;;6.96;92.54;101222.55;100023;1289;96380;-70
2022/11/14 05:12:01;;;;;;;12.60;9.00;;;;;;;7.00;92.60;101219.95;99967;1285;108288;-69
2022/11/14 05:14:47;;;;;;;14.00;9.40;;;;;;;7.04;92.73;101220.47;99854;1285;138376;-70
2022/11/14 05:17:33;;;;;;;14.10;9.10;;;;;;;7.07;92.69;101214.75;100064;1288;111330;-71
2022/11/14 05:20:19;;;;;;;13.60;9.40;;;;;;;7.07;92.53;101215.27;99944;1287;138145;-71
2022/11/14 05:23:05;;;;;;;13.00;8.60;;;;;;;7.08;92.60;101217.86;100041;1288;96371;-70
2022/11/14 05:26:00;;;;;;;13.60;8.30;;;;;;;7.08;92.31;101222.88;99877;1287;139389;-70
2022/11/14 05:28:46;;;;;;;12.30;7.80;;;;;;;7.03;92.08;101224.10;100028;1287;96328;-71
2022/11/14 05:31:32;;;;;;;11.00;7.60;;;;;;;6.99;92.18;101217.35;99912;1289;138445;-70
2022/11/14 05:34:18;;;;;;;12.00;7.70;;;;;;;6.98;92.29;101215.10;100002;1294;107930;-70
2022/11/14 05:37:04;;;;;;;12.40;8.50;;;;;;;6.99;92.39;101217.00;99943;1289;138168;-70
2022/11/14 05:39:50;;;;;;;12.70;8.30;;;;;;;7.01;92.31;101215.29;100021;1289;107135;-71
2022/11/14 05:42:35;;;;;;;11.20;8.00;;;;;;;7.04;92.43;101212.00;99943;1293;138863;-71
2022/11/14 05:45:21;;;;;;;11.30;7.60;;;;;;;7.06;92.23;101211.13;100016;1287;110467;-70
2022/11/14 05:48:07;;;;;;;15.10;8.10;;;;;;;7.10;92.38;101211.11;99999;1289;107438;-70
2022/11/14 05:50:55;;;;;;;12.60;7.50;;;;;;;7.13;92.29;101215.41;100089;1287;139008;-71
2022/11/14 05:53:41;;;;;;;11.60;8.10;;;;;;;7.14;91.96;101219.56;99923;1290;107870;-71
2022/11/14 05:56:27;;;;;;;12.10;7.70;;;;;;;7.15;91.84;101221.64;99930;1288;137831;-71
2022/11/14 05:59:13;;;;;;;10.60;7.20;;;;;;;7.15;91.58;101223.19;99952;1282;110420;-70
2022/11/14 06:01:59;;;;;;;11.30;8.10;;;;;;;7.14;91.59;101220.27;99770;1289;138044;-71
2022/11/14 06:04:45;;;;;;;9.90;7.30;;;;;;;7.16;91.63;101219.90;99883;1288;96521;-70
2022/11/14 06:07:31;;;;;;;9.90;7.60;;;;;;;7.18;91.55;101221.29;99789;1289;137584;-71
2022/11/14 06:10:17;;;;;;;11.90;8.20;;;;;;;7.19;91.45;101226.66;99897;1287;96470;-71
2022/11/14 06:13:02;;;;;;;12.00;8.00;;;;;;;7.16;91.36;101221.63;99850;1297;138375;-68
2022/11/14 06:15:48;;;;;;;13.80;8.10;;;;;;;7.15;91.40;101220.08;99916;1294;106463;-68
2022/11/14 06:18:35;;;;;;;10.20;7.50;;;;;;;7.16;91.45;101223.54;99922;1292;138022;-70
2022/11/14 06:21:23;;;;;;;12.50;8.20;;;;;;;7.16;91.31;101229.93;100116;1289;107349;-69
2022/11/14 06:24:10;;;;;;;11.90;8.20;;;;;;;7.16;91.36;101232.17;100028;1281;96367;-70
2022/11/14 06:26:57;;;;;;;13.20;8.70;;;;;;;7.13;91.27;101232.20;100084;1291;109128;-70
2022/11/14 06:29:44;;;;;;;11.80;8.40;;;;;;;7.11;91.23;101230.82;100016;1290;107402;-70
2022/11/14 06:32:30;;;;;;;14.40;8.30;;;;;;;7.10;91.39;101235.48;99883;1288;138108;-69
2022/11/14 06:35:17;;;;;;;11.10;7.40;;;;;;;7.07;91.40;101233.77;99988;1291;108586;-69
2022/11/14 06:38:03;;;;;;;10.50;7.60;;;;;;;7.05;91.31;101231.70;99876;1288;139075;-68
2022/11/14 06:40:49;;;;;;;13.80;7.70;;;;;;;7.03;91.32;101235.69;99995;1287;110471;-68
2022/11/14 06:43:39;;;;;;;11.70;7.70;;;;;;;7.04;91.48;101232.58;99920;1294;138107;-68
2022/11/14 06:46:24;;;;;;;10.80;6.60;;;;;;;7.05;91.54;101235.16;99766;1289;239556;-68
2022/11/14 06:49:10;;;;;;;9.80;6.70;;;;;;;7.07;91.48;101238.27;99924;1289;138209;-70
2022/11/14 06:51:56;;;;;;;10.90;6.80;;;;;;;7.08;91.06;101239.83;100056;1281;96573;-69
2022/11/14 06:54:42;;;;;;;8.80;6.30;;;;;;;7.07;90.99;101240.35;99897;1288;138250;-71
2022/11/14 06:57:27;;;;;;;12.00;7.50;;;;;;;7.09;90.97;101240.69;99949;1275;107174;-70
2022/11/14 07:00:15;;;;;;;10.00;7.10;;;;;;;7.08;90.91;101247.26;100061;1282;96980;-70
2022/11/14 07:03:01;;;;;;;12.50;8.10;;;;;;;7.10;90.94;101247.08;100111;1287;107895;-70
2022/11/14 07:05:47;;;;;;;13.30;9.20;;;;;;;7.09;90.67;101238.95;99914;1289;294046;-69
2022/11/14 07:08:33;;;;;;;14.10;9.00;;;;;;;7.08;90.66;101248.81;100005;1289;137899;-69
2022/11/14 07:11:22;;;;;;;11.10;7.90;;;;;;;7.05;90.49;101248.48;99910;1286;107491;-69
2022/11/14 07:14:09;;;;;;;12.60;8.20;;;;;;;7.02;90.35;101251.77;99916;1289;137905;-68
2022/11/14 07:16:55;;;;;;;11.80;8.10;;;;;;;6.99;90.39;101245.53;101534;1295;107417;-69
2022/11/14 07:19:40;;;;;;;10.70;8.10;;;;;;;6.97;90.51;101238.27;100157;1289;139446;-69
2022/11/14 07:22:26;;;;;;;10.40;7.50;;;;;;;6.98;90.65;101239.30;99942;1282;108676;-69
2022/11/14 07:25:12;;;;;;;13.10;8.00;;;;;;;6.96;90.61;101237.92;99645;1289;138044;-69
2022/11/14 07:28:00;;;;;;;12.00;7.50;;;;;;;6.95;90.71;101231.36;99840;1283;98261;-70
2022/11/14 07:30:45;;;;;;;11.30;7.30;;;;;;;6.94;90.61;101233.27;99787;1282;138216;-69
2022/11/14 07:33:33;;;;;;;10.30;6.60;;;;;;;6.92;90.48;101238.46;99789;1288;96341;-69
2022/11/14 07:36:19;;;;;;;9.40;6.80;;;;;;;6.90;90.51;101230.52;99913;1288;110174;-69
2022/11/14 07:39:06;;;;;;;12.60;6.70;;;;;;;6.87;90.49;101229.66;99891;1288;106867;-70
2022/11/14 07:41:52;;;;;;;10.50;6.50;;;;;;;6.86;90.48;101230.70;99904;1281;96469;-69
2022/11/14 07:44:38;;;;;;;8.90;6.20;;;;;;;6.87;90.65;101222.23;99814;1288;137840;-70
2022/11/14 07:47:24;;;;;;;12.10;6.40;;;;;;;6.89;90.73;101227.05;100015;1282;96465;-70
2022/11/14 07:50:11;;;;;;;9.30;5.50;;;;;;;6.92;90.67;101228.95;99990;1288;137897;-70
2022/11/14 07:53:04;;;;;;;11.60;6.40;;;;;;;6.93;90.55;101223.41;100903;1289;108620;-69
2022/11/14 07:55:50;;;;;;;8.30;5.70;;;;;;;6.96;90.41;101222.02;99851;1281;138751;-69
2022/11/14 07:58:38;;;;;;;7.40;5.60;;;;;;;6.96;90.09;101228.95;100046;1289;108261;-70
2022/11/14 08:01:26;;;;;;;10.90;6.00;;;;;;;6.96;89.92;101223.93;99731;1289;138000;-70
2022/11/14 08:04:12;;;;;;;7.50;5.90;;;;;;;6.97;89.74;101223.74;99936;1283;109872;-70
2022/11/14 08:06:58;;;;;;;8.70;6.00;;;;;;;6.97;89.61;101216.66;99831;1283;138508;-70
2022/11/14 08:09:47;;;;;;;12.00;6.60;;;;;;;6.97;89.56;101222.70;99942;1288;96355;-70
2022/11/14 08:12:37;;;;;;;8.10;6.50;;;;;;;6.98;89.64;101224.61;100032;1290;107892;-69
2022/11/14 08:15:23;;;;;;;8.50;6.10;;;;;;;6.96;89.55;101221.67;100047;1282;96355;-71
2022/11/14 08:18:09;;;;;;;5.90;4.70;;;;;;;6.93;89.13;101221.34;100002;1286;109039;-70
2022/11/14 08:20:56;;;;;;;6.70;5.10;;;;;;;6.90;88.86;101217.73;100825;1275;137845;-69
2022/11/14 08:23:44;;;;;;;8.20;4.80;;;;;;;6.90;89.02;101212.20;100572;1288;96547;-69
2022/11/14 08:26:29;;;;;;;7.50;5.40;;;;;;;6.90;89.05;101206.48;99991;1286;136809;-69
2022/11/14 08:29:19;;;;;;;7.40;5.80;;;;;;;6.92;89.20;101209.25;100013;1296;96563;-70
2022/11/14 08:32:05;;;;;;;7.70;5.50;;;;;;;6.93;89.23;101202.33;99941;1282;137812;-70
2022/11/14 08:34:51;;;;;;;8.20;5.80;;;;;;;6.97;89.50;101203.69;100058;1283;107594;-70
2022/11/14 08:37:37;;;;;;;7.90;5.10;;;;;;;7.02;89.21;101195.23;99959;1281;138175;-70
2022/11/14 08:40:23;;;;;;;7.20;5.20;;;;;;;7.07;88.97;101198.32;99985;1286;106768;-70
2022/11/14 08:43:10;;;;;;;7.90;5.20;;;;;;;7.11;88.98;101191.39;99982;1291;137992;-70
2022/11/14 08:46:00;;;;;;;7.80;5.40;;;;;;;7.14;88.80;101196.73;100034;1289;109038;-71
2022/11/14 08:48:47;;;;;;;9.80;6.00;;;;;;;7.15;88.65;101200.88;99949;1281;107335;-72
2022/11/14 08:51:32;;;;;;;8.30;6.40;;;;;;;7.13;88.39;101198.98;100041;1281;96475;-71
2022/11/14 08:54:21;;;;;;;6.60;5.20;;;;;;;7.10;88.50;101194.84;100109;1289;107166;-72
2022/11/14 08:57:07;;;;;;;9.10;5.70;;;;;;;7.07;88.27;101182.77;99966;1282;137892;-74
2022/11/14 08:59:54;;;;;;;7.60;5.50;;;;;;;7.07;88.29;101182.06;100052;1275;109277;-71
2022/11/14 09:02:39;;;;;;;;;;;;;;;7.11;88.29;101184.81;99962;1282;138801;-70
2022/11/14 09:05:25;;;;;;;6.00;4.90;;;;;;;7.12;87.79;101184.46;99988;1282;96978;-70
2022/11/14 09:08:11;;;;;;;6.20;4.90;;;;;;;7.14;87.36;101181.00;99814;1289;138311;-70
2022/11/14 09:10:59;;;;;;;8.70;6.20;;;;;;;7.16;87.15;101171.13;100007;1289;96371;-70
2022/11/14 09:13:49;;;;;;;8.10;6.40;;;;;;;7.18;87.30;101172.69;99926;1283;137703;-70
2022/11/14 09:16:35;;;;;;;7.90;6.60;;;;;;;7.19;87.28;101165.27;99971;1285;106220;-71
2022/11/14 09:19:21;;;;;;;11.60;7.40;;;;;;;7.19;87.15;101162.67;99990;1281;137886;-72
2022/11/14 09:22:06;;;;;;;10.00;7.40;;;;;;;7.14;87.28;101163.70;99951;1289;109860;-73
2022/11/14 09:24:52;;;;;;;11.20;7.40;;;;;;;7.12;87.47;101157.14;99910;1289;139182;-72
2022/11/14 09:27:38;;;;;;;9.50;7.80;;;;;;;7.12;87.62;101150.05;100052;1288;110174;-71
2022/11/14 09:30:24;;;;;;;13.60;8.10;;;;;;;7.11;87.80;101153.16;99937;1288;108765;-71
2022/11/14 09:33:10;;;;;;;12.00;8.70;;;;;;;7.11;88.03;101158.36;99935;1282;138202;-72
2022/11/14 09:36:00;;;;;;;12.00;8.40;;;;;;;7.10;88.42;101157.33;100040;1285;107504;-72
2022/11/14 09:38:46;;;;;;;10.50;8.50;;;;;;;7.11;88.24;101165.96;99917;1289;138329;-71
2022/11/14 09:41:46;;;;;;;12.80;9.30;;;;;;;7.04;87.92;101158.22;99956;1281;109441;-71
2022/11/14 09:44:53;;;;;;;11.70;8.70;;;;;;;7.02;88.24;101156.48;99869;1281;138206;-72
2022/11/14 09:47:44;;;;;;;8.90;6.80;;;;;;;7.03;88.18;101155.29;100061;1289;96462;-70
2022/11/14 09:50:33;;;;;;;10.40;7.40;;;;;;;7.01;87.72;101151.14;99884;1281;138091;-72
2022/11/14 09:53:26;;;;;;;9.70;7.80;;;;;;;7.01;88.02;101152.34;100043;1281;96458;-70
2022/11/14 09:56:15;;;;;;;8.90;7.20;;;;;;;7.00;88.00;101153.20;100024;1291;137765;-70
2022/11/14 09:59:01;;;;;;;12.50;8.30;;;;;;;6.96;87.91;101146.64;100046;1288;107019;-71
2022/11/14 10:01:56;;;;;;;10.10;8.10;;;;;;;6.94;88.09;101146.64;99954;1288;138024;-71
2022/11/14 10:04:54;;;;;;;11.80;8.60;;;;;;;6.93;88.33;101143.71;100050;1290;106402;-70
2022/11/14 10:07:53;;;;;;;10.10;8.30;;;;;;;6.94;88.55;101144.58;100532;1282;138316;-71
2022/11/14 10:10:53;;;;;;;10.80;7.70;;;;;;;6.96;88.48;101144.21;100067;1289;110217;-71
2022/11/14 10:14:01;;;;;;;11.60;7.00;;;;;;;6.99;88.32;101137.98;100116;1289;141956;-71
2022/11/14 10:16:57;;;;;;;10.30;7.70;;;;;;;6.99;87.86;101142.30;100133;1288;96536;-71
2022/11/14 10:19:55;;;;;;;9.50;7.30;;;;;;;6.99;87.91;101137.63;100037;1282;138187;-70
2022/11/14 10:23:04;;;;;;;11.00;8.10;;;;;;;6.98;87.84;101139.53;100149;1294;96507;-70
2022/11/14 10:26:04;;;;;;;11.10;8.50;;;;;;;6.96;87.64;101134.20;99904;1289;140007;-76
2022/11/14 10:29:02;;;;;;;10.70;8.10;;;;;;;6.95;87.62;101129.88;101454;1282;107187;-71
2022/11/14 10:31:56;;;;;;;10.10;8.00;;;;;;;6.97;87.64;101121.73;101399;1288;138281;-71
2022/11/14 10:34:50;;;;;;;10.20;7.50;;;;;;;6.99;87.67;101120.87;100988;1296;109619;-70
2022/11/14 10:37:41;;;;;;;10.20;7.30;;;;;;;7.01;87.39;101112.75;99876;1281;138220;-71
2022/11/14 10:40:32;;;;;;;10.80;7.80;;;;;;;7.03;87.41;101110.50;99941;1282;109363;-71
2022/11/14 10:43:28;;;;;;;8.00;6.60;;;;;;;7.05;87.27;101106.17;101027;1291;138173;-71
2022/11/14 10:46:21;;;;;;;9.10;7.30;;;;;;;7.05;87.40;101100.98;100056;1288;96496;-73
2022/11/14 10:49:16;;;;;;;9.20;7.10;;;;;;;7.09;87.41;101095.58;99983;1285;138880;-71
2022/11/14 10:52:06;;;;;;;8.40;6.40;;;;;;;7.14;87.30;101096.25;100032;1289;96454;-72
2022/11/14 10:54:58;;;;;;;9.60;6.10;;;;;;;7.16;86.99;101096.93;100012;1281;138010;-71
2022/11/14 10:57:45;;;;;;;7.00;5.40;;;;;;;7.17;86.92;101093.63;100106;1291;107521;-71
2022/11/14 11:00:31;;;;;;;9.20;5.90;;;;;;;7.18;86.89;101084.31;100140;1288;95350;-71
2022/11/14 11:03:17;;;;;;;10.70;6.90;;;;;;;7.21;86.85;101083.27;100076;1281;107396;-72
2022/11/14 11:06:03;;;;;;;9.90;6.90;;;;;;;7.23;86.90;101075.81;99911;1288;96364;-71
2022/11/14 11:11:58;;;;;;;14.00;9.70;;;;;;;7.27;86.85;101062.98;99951;1289;106420;-71
2022/11/14 11:14:45;;;;;;;14.90;9.90;;;;;;;7.28;86.58;101061.59;99851;1285;138128;-71
2022/11/14 11:17:30;;;;;;;15.10;10.30;;;;;;;7.28;86.57;101062.11;100028;1282;106899;-72
2022/11/14 11:20:30;;;;;;;16.70;10.90;;;;;;;7.25;86.60;101060.75;99943;1289;138689;-70
2022/11/14 11:23:24;;;;;;;16.20;11.00;;;;;;;7.23;86.86;101055.58;100048;1288;109127;-70
2022/11/14 11:26:19;;;;;;;15.50;10.30;;;;;;;7.26;86.64;101051.75;99860;1289;138648;-71
2022/11/14 11:29:15;;;;;;;12.60;9.00;;;;;;;7.25;86.20;101050.02;100040;1289;96458;-71
2022/11/14 11:32:01;;;;;;;10.60;8.10;;;;;;;7.22;86.15;101048.48;101406;1293;138734;-71
2022/11/14 11:34:47;;;;;;;10.50;7.20;;;;;;;7.17;86.04;101044.52;101521;1288;94680;-71
2022/11/14 11:37:38;;;;;;;8.80;6.80;;;;;;;7.16;86.21;101033.80;99985;1281;138499;-71
2022/11/14 11:40:27;;;;;;;9.80;6.90;;;;;;;7.16;86.42;101031.55;100032;1282;107969;-69
2022/11/14 11:43:16;;;;;;;10.00;6.90;;;;;;;7.18;86.55;101031.55;99914;1288;138241;-71
2022/11/14 11:46:29;;;;;;;9.70;7.00;;;;;;;7.24;86.61;101027.73;100024;1281;108143;-70
2022/11/14 11:49:19;;;;;;;9.70;6.20;;;;;;;7.30;86.48;101022.65;99833;1289;138669;-71
2022/11/14 11:52:12;;;;;;;8.10;5.90;;;;;;;7.29;86.20;101011.77;100071;1289;111075;-70
2022/11/14 11:55:05;;;;;;;7.60;6.20;;;;;;;7.30;85.90;101014.70;100028;1281;138970;-71
2022/11/14 11:58:01;;;;;;;7.60;6.00;;;;;;;7.27;85.69;101015.24;100090;1294;96562;-72
2022/11/14 12:00:47;;;;;;;7.20;5.20;;;;;;;7.24;85.60;101023.23;99997;1289;108398;-71
2022/11/14 12:03:34;;;;;;;8.30;5.50;;;;;;;7.20;85.47;101020.66;99985;1288;97951;-69
2022/11/14 12:06:24;;;;;;;6.90;5.50;;;;;;;7.17;85.45;101018.06;99971;1288;109033;-70
2022/11/14 12:09:19;;;;;;;7.30;5.80;;;;;;;7.15;85.69;101005.80;99930;1297;138240;-70
2022/11/14 12:12:11;;;;;;;8.90;6.50;;;;;;;7.12;85.66;101005.13;100086;1288;96970;-70
2022/11/14 12:15:15;;;;;;;10.20;6.40;;;;;;;7.11;85.63;101004.45;99978;1289;138123;-70
2022/11/14 12:18:20;;;;;;;8.60;6.50;;;;;;;7.10;85.68;101003.94;100176;1285;96488;-70
2022/11/14 12:21:13;;;;;;;9.30;6.60;;;;;;;7.11;86.01;101000.98;100036;1291;137882;-71
2022/11/14 12:24:23;;;;;;;12.30;7.60;;;;;;;7.17;86.25;100997.49;100047;1291;105784;-70
2022/11/14 12:27:20;;;;;;;9.40;7.40;;;;;;;7.23;86.17;100996.08;99971;1289;138227;-70
2022/11/14 12:30:20;;;;;;;11.90;8.80;;;;;;;7.25;85.83;100998.13;100039;1285;107144;-70
2022/11/14 12:33:12;;;;;;;12.10;8.50;;;;;;;7.26;85.69;101005.05;100587;1282;138503;-70
2022/11/14 12:36:00;;;;;;;14.80;9.70;;;;;;;7.24;85.59;101002.64;101344;1282;109839;-70
2022/11/14 12:38:51;;;;;;;16.20;10.70;;;;;;;7.21;85.60;101000.77;99933;1282;138274;-70
2022/11/14 12:41:39;;;;;;;18.00;12.50;;;;;;;7.18;85.85;101011.33;99987;1288;96536;-70
2022/11/14 12:44:37;;;;;;;24.90;15.50;;;;;;;7.13;85.86;101006.50;99911;1289;138160;-70
2022/11/14 12:47:26;;;;;;;33.30;20.90;;;;;;;7.09;85.86;101011.73;100035;1281;96770;-71
2022/11/14 12:50:40;;;;;;;31.70;20.50;;;;;;;7.02;85.61;101006.75;100125;1281;140131;-71
2022/11/14 12:53:43;;;;;;;29.60;18.70;;;;;;;6.93;85.46;101006.45;99922;1288;107095;-72